sensor_id;sensor_type;location;lat;lon;timestamp;P1;durP1;ratioP1;P2;durP2;ratioP2
66761;SDS011;53672;48.176;16.338;2022-12-22T00:01:59;43.93;;;14.23;;
66761;SDS011;53672;48.176;16.338;2022-12-22T00:07:00;42.92;;;14.98;;
66761;SDS011;53672;48.176;16.338;2022-12-22T00:12:02;49.20;;;16.63;;
66761;SDS011;53672;48.176;16.338;2022-12-22T00:17:04;46.38;;;16.15;;
66761;SDS011;53672;48.176;16.338;2022-12-22T00:22:17;48.20;;;14.50;;
66761;SDS011;53672;48.176;16.338;2022-12-22T00:27:23;51.38;;;15.05;;
66761;SDS011;53672;48.176;16.338;2022-12-22T00:32:27;50.67;;;15.48;;
66761;SDS011;53672;48.176;16.338;2022-12-22T00:37:33;46.70;;;14.40;;
66761;SDS011;53672;48.176;16.338;2022-12-22T00:42:36;46.53;;;14.52;;
66761;SDS011;53672;48.176;16.338;2022-12-22T00:47:36;46.33;;;15.43;;
66761;SDS011;53672;48.176;16.338;2022-12-22T00:52:37;42.50;;;15.75;;
66761;SDS011;53672;48.176;16.338;2022-12-22T00:57:39;43.07;;;14.03;;
66761;SDS011;53672;48.176;16.338;2022-12-22T01:02:41;42.40;;;14.87;;
66761;SDS011;53672;48.176;16.338;2022-12-22T01:07:42;39.27;;;15.03;;
66761;SDS011;53672;48.176;16.338;2022-12-22T01:12:44;38.80;;;14.13;;
66761;SDS011;53672;48.176;16.338;2022-12-22T01:17:45;41.97;;;14.53;;
66761;SDS011;53672;48.176;16.338;2022-12-22T01:22:45;42.47;;;13.60;;
66761;SDS011;53672;48.176;16.338;2022-12-22T01:27:47;47.43;;;14.37;;
66761;SDS011;53672;48.176;16.338;2022-12-22T01:32:47;46.47;;;14.05;;
66761;SDS011;53672;48.176;16.338;2022-12-22T01:37:48;44.97;;;15.13;;
66761;SDS011;53672;48.176;16.338;2022-12-22T01:42:50;41.67;;;14.63;;
66761;SDS011;53672;48.176;16.338;2022-12-22T01:47:50;43.72;;;14.43;;
66761;SDS011;53672;48.176;16.338;2022-12-22T01:52:51;44.30;;;13.70;;
66761;SDS011;53672;48.176;16.338;2022-12-22T01:57:53;51.60;;;16.23;;
66761;SDS011;53672;48.176;16.338;2022-12-22T02:02:53;49.20;;;14.93;;
66761;SDS011;53672;48.176;16.338;2022-12-22T02:07:55;39.00;;;12.63;;
66761;SDS011;53672;48.176;16.338;2022-12-22T02:13:04;46.20;;;15.17;;
66761;SDS011;53672;48.176;16.338;2022-12-22T02:18:13;51.65;;;15.73;;
66761;SDS011;53672;48.176;16.338;2022-12-22T02:23:34;44.53;;;15.27;;
66761;SDS011;53672;48.176;16.338;2022-12-22T02:28:52;47.43;;;16.97;;
66761;SDS011;53672;48.176;16.338;2022-12-22T02:33:53;51.33;;;17.80;;
66761;SDS011;53672;48.176;16.338;2022-12-22T02:38:55;50.53;;;16.40;;
66761;SDS011;53672;48.176;16.338;2022-12-22T02:44:13;52.35;;;17.40;;
66761;SDS011;53672;48.176;16.338;2022-12-22T02:49:21;55.90;;;17.35;;
66761;SDS011;53672;48.176;16.338;2022-12-22T02:54:26;48.05;;;15.82;;
66761;SDS011;53672;48.176;16.338;2022-12-22T02:59:31;48.10;;;16.07;;
66761;SDS011;53672;48.176;16.338;2022-12-22T03:04:32;46.70;;;15.18;;
66761;SDS011;53672;48.176;16.338;2022-12-22T03:09:32;45.67;;;15.23;;
66761;SDS011;53672;48.176;16.338;2022-12-22T03:14:34;42.77;;;15.23;;
66761;SDS011;53672;48.176;16.338;2022-12-22T03:19:34;46.38;;;15.07;;
66761;SDS011;53672;48.176;16.338;2022-12-22T03:24:35;47.00;;;15.43;;
66761;SDS011;53672;48.176;16.338;2022-12-22T03:29:37;44.97;;;14.67;;
66761;SDS011;53672;48.176;16.338;2022-12-22T03:34:38;49.70;;;15.65;;
66761;SDS011;53672;48.176;16.338;2022-12-22T03:39:38;44.55;;;14.35;;
66761;SDS011;53672;48.176;16.338;2022-12-22T03:44:40;47.00;;;14.83;;
66761;SDS011;53672;48.176;16.338;2022-12-22T03:49:40;43.93;;;13.77;;
66761;SDS011;53672;48.176;16.338;2022-12-22T03:54:41;47.90;;;14.87;;
66761;SDS011;53672;48.176;16.338;2022-12-22T03:59:43;45.25;;;13.93;;
66761;SDS011;53672;48.176;16.338;2022-12-22T04:04:43;49.20;;;15.40;;
66761;SDS011;53672;48.176;16.338;2022-12-22T04:09:44;47.70;;;15.90;;
66761;SDS011;53672;48.176;16.338;2022-12-22T04:14:46;46.00;;;14.80;;
66761;SDS011;53672;48.176;16.338;2022-12-22T04:19:46;43.80;;;13.38;;
66761;SDS011;53672;48.176;16.338;2022-12-22T04:24:47;44.30;;;13.60;;
66761;SDS011;53672;48.176;16.338;2022-12-22T04:29:48;46.23;;;15.17;;
66761;SDS011;53672;48.176;16.338;2022-12-22T04:34:49;43.30;;;13.73;;
66761;SDS011;53672;48.176;16.338;2022-12-22T04:39:49;41.60;;;14.17;;
66761;SDS011;53672;48.176;16.338;2022-12-22T04:44:51;44.67;;;15.00;;
66761;SDS011;53672;48.176;16.338;2022-12-22T04:49:52;45.45;;;14.57;;
66761;SDS011;53672;48.176;16.338;2022-12-22T04:54:52;47.00;;;13.90;;
66761;SDS011;53672;48.176;16.338;2022-12-22T04:59:54;43.10;;;14.63;;
66761;SDS011;53672;48.176;16.338;2022-12-22T05:04:55;56.73;;;16.33;;
66761;SDS011;53672;48.176;16.338;2022-12-22T05:09:55;48.22;;;14.73;;
66761;SDS011;53672;48.176;16.338;2022-12-22T05:14:57;47.67;;;14.38;;
66761;SDS011;53672;48.176;16.338;2022-12-22T05:19:57;50.87;;;13.87;;
66761;SDS011;53672;48.176;16.338;2022-12-22T05:24:58;45.73;;;14.47;;
66761;SDS011;53672;48.176;16.338;2022-12-22T05:30:00;49.77;;;15.73;;
66761;SDS011;53672;48.176;16.338;2022-12-22T05:35:01;52.85;;;15.32;;
66761;SDS011;53672;48.176;16.338;2022-12-22T05:40:03;41.65;;;12.20;;
66761;SDS011;53672;48.176;16.338;2022-12-22T05:45:08;43.93;;;12.90;;
66761;SDS011;53672;48.176;16.338;2022-12-22T05:50:12;47.05;;;14.20;;
66761;SDS011;53672;48.176;16.338;2022-12-22T05:55:13;51.27;;;14.10;;
66761;SDS011;53672;48.176;16.338;2022-12-22T06:00:16;60.38;;;15.73;;
66761;SDS011;53672;48.176;16.338;2022-12-22T06:05:17;59.40;;;13.43;;
66761;SDS011;53672;48.176;16.338;2022-12-22T06:10:19;46.20;;;13.90;;
66761;SDS011;53672;48.176;16.338;2022-12-22T06:15:21;53.58;;;13.90;;
66761;SDS011;53672;48.176;16.338;2022-12-22T06:20:21;47.22;;;12.88;;
66761;SDS011;53672;48.176;16.338;2022-12-22T06:25:22;47.37;;;13.30;;
66761;SDS011;53672;48.176;16.338;2022-12-22T06:30:24;59.30;;;13.65;;
66761;SDS011;53672;48.176;16.338;2022-12-22T06:35:24;58.70;;;14.07;;
66761;SDS011;53672;48.176;16.338;2022-12-22T06:40:25;51.80;;;12.27;;
66761;SDS011;53672;48.176;16.338;2022-12-22T06:45:27;59.63;;;12.23;;
66761;SDS011;53672;48.176;16.338;2022-12-22T06:50:27;32.63;;;8.00;;
66761;SDS011;53672;48.176;16.338;2022-12-22T06:55:28;57.57;;;12.20;;
66761;SDS011;53672;48.176;16.338;2022-12-22T07:00:30;75.17;;;13.03;;
66761;SDS011;53672;48.176;16.338;2022-12-22T07:05:31;58.72;;;13.57;;
66761;SDS011;53672;48.176;16.338;2022-12-22T07:10:31;66.03;;;13.67;;
66761;SDS011;53672;48.176;16.338;2022-12-22T07:15:33;60.17;;;13.20;;
66761;SDS011;53672;48.176;16.338;2022-12-22T07:20:34;52.28;;;14.60;;
66761;SDS011;53672;48.176;16.338;2022-12-22T07:25:34;52.73;;;13.77;;
66761;SDS011;53672;48.176;16.338;2022-12-22T07:30:36;54.30;;;14.43;;
66761;SDS011;53672;48.176;16.338;2022-12-22T07:35:38;58.80;;;15.63;;
66761;SDS011;53672;48.176;16.338;2022-12-22T07:40:38;57.47;;;15.70;;
66761;SDS011;53672;48.176;16.338;2022-12-22T07:45:40;70.20;;;16.40;;
66761;SDS011;53672;48.176;16.338;2022-12-22T07:50:41;71.70;;;16.50;;
66761;SDS011;53672;48.176;16.338;2022-12-22T07:55:41;54.47;;;15.30;;
66761;SDS011;53672;48.176;16.338;2022-12-22T08:00:43;56.43;;;13.70;;
66761;SDS011;53672;48.176;16.338;2022-12-22T08:05:44;60.33;;;15.45;;
66761;SDS011;53672;48.176;16.338;2022-12-22T08:10:44;68.03;;;14.77;;
66761;SDS011;53672;48.176;16.338;2022-12-22T08:15:46;46.87;;;12.67;;
66761;SDS011;53672;48.176;16.338;2022-12-22T08:20:47;58.60;;;15.27;;
66761;SDS011;53672;48.176;16.338;2022-12-22T08:25:49;47.90;;;15.15;;
66761;SDS011;53672;48.176;16.338;2022-12-22T08:30:55;52.40;;;13.75;;
66761;SDS011;53672;48.176;16.338;2022-12-22T08:35:56;58.88;;;16.38;;
66761;SDS011;53672;48.176;16.338;2022-12-22T08:40:57;50.50;;;14.30;;
66761;SDS011;53672;48.176;16.338;2022-12-22T08:45:59;50.70;;;14.88;;
66761;SDS011;53672;48.176;16.338;2022-12-22T08:51:00;63.33;;;16.87;;
66761;SDS011;53672;48.176;16.338;2022-12-22T08:56:00;59.83;;;17.50;;
66761;SDS011;53672;48.176;16.338;2022-12-22T09:01:02;54.53;;;16.83;;
66761;SDS011;53672;48.176;16.338;2022-12-22T09:06:03;57.83;;;17.05;;
66761;SDS011;53672;48.176;16.338;2022-12-22T09:11:04;62.40;;;18.30;;
66761;SDS011;53672;48.176;16.338;2022-12-22T09:16:06;65.13;;;18.50;;
66761;SDS011;53672;48.176;16.338;2022-12-22T09:21:08;53.83;;;16.35;;
66761;SDS011;53672;48.176;16.338;2022-12-22T09:26:09;53.70;;;17.50;;
66761;SDS011;53672;48.176;16.338;2022-12-22T09:31:12;54.83;;;16.17;;
66761;SDS011;53672;48.176;16.338;2022-12-22T09:36:13;62.42;;;16.48;;
66761;SDS011;53672;48.176;16.338;2022-12-22T09:41:17;65.83;;;15.47;;
66761;SDS011;53672;48.176;16.338;2022-12-22T09:46:25;62.13;;;17.13;;
66761;SDS011;53672;48.176;16.338;2022-12-22T09:51:28;69.47;;;17.80;;
66761;SDS011;53672;48.176;16.338;2022-12-22T09:56:30;69.17;;;18.53;;
66761;SDS011;53672;48.176;16.338;2022-12-22T10:01:35;67.00;;;18.43;;
66761;SDS011;53672;48.176;16.338;2022-12-22T10:06:48;66.32;;;18.42;;
66761;SDS011;53672;48.176;16.338;2022-12-22T10:11:55;54.95;;;17.42;;
66761;SDS011;53672;48.176;16.338;2022-12-22T10:22:24;60.22;;;17.02;;
66761;SDS011;53672;48.176;16.338;2022-12-22T10:27:29;56.60;;;16.00;;
66761;SDS011;53672;48.176;16.338;2022-12-22T10:32:33;44.90;;;12.02;;
66761;SDS011;53672;48.176;16.338;2022-12-22T10:37:34;57.90;;;13.93;;
66761;SDS011;53672;48.176;16.338;2022-12-22T10:42:37;44.05;;;12.18;;
66761;SDS011;53672;48.176;16.338;2022-12-22T10:47:46;41.90;;;11.55;;
66761;SDS011;53672;48.176;16.338;2022-12-22T10:52:49;36.70;;;12.57;;
66761;SDS011;53672;48.176;16.338;2022-12-22T10:57:51;43.88;;;11.90;;
66761;SDS011;53672;48.176;16.338;2022-12-22T11:03:14;46.05;;;14.35;;
66761;SDS011;53672;48.176;16.338;2022-12-22T11:08:29;37.95;;;11.95;;
66761;SDS011;53672;48.176;16.338;2022-12-22T11:13:43;39.90;;;13.40;;
66761;SDS011;53672;48.176;16.338;2022-12-22T11:18:59;40.87;;;9.73;;
66761;SDS011;53672;48.176;16.338;2022-12-22T11:24:20;56.55;;;14.93;;
66761;SDS011;53672;48.176;16.338;2022-12-22T11:29:33;51.55;;;15.43;;
66761;SDS011;53672;48.176;16.338;2022-12-22T11:34:55;52.08;;;16.35;;
66761;SDS011;53672;48.176;16.338;2022-12-22T11:40:05;53.25;;;16.13;;
66761;SDS011;53672;48.176;16.338;2022-12-22T11:45:19;61.57;;;18.17;;
66761;SDS011;53672;48.176;16.338;2022-12-22T11:50:35;57.92;;;16.02;;
66761;SDS011;53672;48.176;16.338;2022-12-22T11:55:41;57.08;;;17.27;;
66761;SDS011;53672;48.176;16.338;2022-12-22T12:00:48;59.20;;;18.02;;
66761;SDS011;53672;48.176;16.338;2022-12-22T12:06:02;48.80;;;14.38;;
66761;SDS011;53672;48.176;16.338;2022-12-22T12:11:22;43.17;;;12.30;;
66761;SDS011;53672;48.176;16.338;2022-12-22T12:16:32;51.72;;;14.13;;
66761;SDS011;53672;48.176;16.338;2022-12-22T12:21:40;68.18;;;18.08;;
66761;SDS011;53672;48.176;16.338;2022-12-22T12:26:50;55.35;;;17.52;;
66761;SDS011;53672;48.176;16.338;2022-12-22T12:31:58;56.38;;;16.95;;
66761;SDS011;53672;48.176;16.338;2022-12-22T12:37:07;59.73;;;18.27;;
66761;SDS011;53672;48.176;16.338;2022-12-22T12:42:20;58.67;;;17.70;;
66761;SDS011;53672;48.176;16.338;2022-12-22T12:47:26;57.80;;;16.77;;
66761;SDS011;53672;48.176;16.338;2022-12-22T12:58:08;40.78;;;12.52;;
66761;SDS011;53672;48.176;16.338;2022-12-22T13:03:10;49.47;;;14.63;;
66761;SDS011;53672;48.176;16.338;2022-12-22T13:08:14;55.38;;;17.58;;
66761;SDS011;53672;48.176;16.338;2022-12-22T13:18:45;54.33;;;17.02;;
66761;SDS011;53672;48.176;16.338;2022-12-22T13:23:49;50.08;;;17.50;;
66761;SDS011;53672;48.176;16.338;2022-12-22T13:28:58;53.90;;;17.30;;
66761;SDS011;53672;48.176;16.338;2022-12-22T13:34:06;40.03;;;13.55;;
66761;SDS011;53672;48.176;16.338;2022-12-22T13:39:25;67.78;;;19.13;;
66761;SDS011;53672;48.176;16.338;2022-12-22T13:44:27;58.70;;;19.02;;
66761;SDS011;53672;48.176;16.338;2022-12-22T13:49:30;59.88;;;19.05;;
66761;SDS011;53672;48.176;16.338;2022-12-22T13:54:35;59.87;;;18.80;;
66761;SDS011;53672;48.176;16.338;2022-12-22T13:59:38;58.47;;;18.02;;
66761;SDS011;53672;48.176;16.338;2022-12-22T14:04:41;61.72;;;19.88;;
66761;SDS011;53672;48.176;16.338;2022-12-22T14:09:45;63.35;;;19.95;;
66761;SDS011;53672;48.176;16.338;2022-12-22T14:14:47;61.25;;;19.02;;
66761;SDS011;53672;48.176;16.338;2022-12-22T14:19:49;61.03;;;19.37;;
66761;SDS011;53672;48.176;16.338;2022-12-22T14:24:54;52.08;;;17.20;;
66761;SDS011;53672;48.176;16.338;2022-12-22T14:29:57;56.67;;;19.00;;
66761;SDS011;53672;48.176;16.338;2022-12-22T14:35:00;59.20;;;21.25;;
66761;SDS011;53672;48.176;16.338;2022-12-22T14:40:02;67.57;;;21.20;;
66761;SDS011;53672;48.176;16.338;2022-12-22T14:45:12;58.63;;;20.30;;
66761;SDS011;53672;48.176;16.338;2022-12-22T14:50:15;66.07;;;23.00;;
66761;SDS011;53672;48.176;16.338;2022-12-22T14:55:21;60.87;;;20.53;;
66761;SDS011;53672;48.176;16.338;2022-12-22T15:00:31;61.53;;;22.30;;
66761;SDS011;53672;48.176;16.338;2022-12-22T15:05:34;62.42;;;21.90;;
66761;SDS011;53672;48.176;16.338;2022-12-22T15:10:40;56.75;;;19.80;;
66761;SDS011;53672;48.176;16.338;2022-12-22T15:15:42;58.72;;;22.52;;
66761;SDS011;53672;48.176;16.338;2022-12-22T15:20:43;54.87;;;19.47;;
66761;SDS011;53672;48.176;16.338;2022-12-22T15:25:45;59.93;;;20.40;;
66761;SDS011;53672;48.176;16.338;2022-12-22T15:30:45;52.33;;;19.02;;
66761;SDS011;53672;48.176;16.338;2022-12-22T15:35:46;63.20;;;20.50;;
66761;SDS011;53672;48.176;16.338;2022-12-22T15:40:48;57.53;;;21.47;;
66761;SDS011;53672;48.176;16.338;2022-12-22T15:45:49;55.97;;;20.08;;
66761;SDS011;53672;48.176;16.338;2022-12-22T15:50:49;61.40;;;20.70;;
66761;SDS011;53672;48.176;16.338;2022-12-22T15:55:52;67.37;;;21.60;;
66761;SDS011;53672;48.176;16.338;2022-12-22T16:00:54;67.15;;;21.63;;
66761;SDS011;53672;48.176;16.338;2022-12-22T16:05:55;61.87;;;20.57;;
66761;SDS011;53672;48.176;16.338;2022-12-22T16:10:57;66.73;;;21.03;;
66761;SDS011;53672;48.176;16.338;2022-12-22T16:15:58;65.70;;;24.63;;
66761;SDS011;53672;48.176;16.338;2022-12-22T16:21:00;65.27;;;20.60;;
66761;SDS011;53672;48.176;16.338;2022-12-22T16:26:06;56.53;;;20.15;;
66761;SDS011;53672;48.176;16.338;2022-12-22T16:31:09;67.10;;;25.10;;
66761;SDS011;53672;48.176;16.338;2022-12-22T16:36:16;52.22;;;20.05;;
66761;SDS011;53672;48.176;16.338;2022-12-22T16:41:20;47.92;;;18.77;;
66761;SDS011;53672;48.176;16.338;2022-12-22T16:46:22;58.05;;;20.08;;
66761;SDS011;53672;48.176;16.338;2022-12-22T16:51:24;57.80;;;20.75;;
66761;SDS011;53672;48.176;16.338;2022-12-22T16:56:28;59.77;;;18.10;;
66761;SDS011;53672;48.176;16.338;2022-12-22T17:01:31;62.70;;;25.00;;
66761;SDS011;53672;48.176;16.338;2022-12-22T17:06:35;59.63;;;19.90;;
66761;SDS011;53672;48.176;16.338;2022-12-22T17:11:37;61.38;;;20.33;;
66761;SDS011;53672;48.176;16.338;2022-12-22T17:16:38;53.33;;;18.80;;
66761;SDS011;53672;48.176;16.338;2022-12-22T17:21:38;60.77;;;21.87;;
66761;SDS011;53672;48.176;16.338;2022-12-22T17:26:40;61.60;;;24.10;;
66761;SDS011;53672;48.176;16.338;2022-12-22T17:31:41;65.28;;;24.42;;
66761;SDS011;53672;48.176;16.338;2022-12-22T17:36:42;70.07;;;27.80;;
66761;SDS011;53672;48.176;16.338;2022-12-22T17:41:46;62.87;;;24.03;;
66761;SDS011;53672;48.176;16.338;2022-12-22T17:46:46;62.17;;;23.70;;
66761;SDS011;53672;48.176;16.338;2022-12-22T17:51:48;58.28;;;19.75;;
66761;SDS011;53672;48.176;16.338;2022-12-22T17:56:50;55.50;;;19.33;;
66761;SDS011;53672;48.176;16.338;2022-12-22T18:01:53;52.80;;;19.95;;
66761;SDS011;53672;48.176;16.338;2022-12-22T18:06:53;52.13;;;18.37;;
66761;SDS011;53672;48.176;16.338;2022-12-22T18:11:55;52.83;;;19.87;;
66761;SDS011;53672;48.176;16.338;2022-12-22T18:16:56;55.97;;;19.45;;
66761;SDS011;53672;48.176;16.338;2022-12-22T18:21:56;61.57;;;21.27;;
66761;SDS011;53672;48.176;16.338;2022-12-22T18:26:58;59.33;;;19.47;;
66761;SDS011;53672;48.176;16.338;2022-12-22T18:31:59;51.72;;;19.42;;
66761;SDS011;53672;48.176;16.338;2022-12-22T18:37:00;53.67;;;17.87;;
66761;SDS011;53672;48.176;16.338;2022-12-22T18:42:02;48.60;;;17.00;;
66761;SDS011;53672;48.176;16.338;2022-12-22T18:47:14;37.38;;;13.43;;
66761;SDS011;53672;48.176;16.338;2022-12-22T18:52:15;31.38;;;9.90;;
66761;SDS011;53672;48.176;16.338;2022-12-22T18:57:18;33.03;;;12.23;;
66761;SDS011;53672;48.176;16.338;2022-12-22T19:02:20;38.83;;;13.90;;
66761;SDS011;53672;48.176;16.338;2022-12-22T19:07:23;32.33;;;11.73;;
66761;SDS011;53672;48.176;16.338;2022-12-22T19:12:26;28.42;;;11.40;;
66761;SDS011;53672;48.176;16.338;2022-12-22T19:17:27;28.02;;;10.63;;
66761;SDS011;53672;48.176;16.338;2022-12-22T19:22:28;21.53;;;8.30;;
66761;SDS011;53672;48.176;16.338;2022-12-22T19:27:30;22.73;;;8.27;;
66761;SDS011;53672;48.176;16.338;2022-12-22T19:32:32;17.98;;;5.72;;
66761;SDS011;53672;48.176;16.338;2022-12-22T19:37:39;10.43;;;2.63;;
66761;SDS011;53672;48.176;16.338;2022-12-22T19:42:41;8.48;;;2.10;;
66761;SDS011;53672;48.176;16.338;2022-12-22T19:47:44;8.40;;;1.50;;
66761;SDS011;53672;48.176;16.338;2022-12-22T19:52:45;11.88;;;2.72;;
66761;SDS011;53672;48.176;16.338;2022-12-22T19:57:47;7.30;;;1.20;;
66761;SDS011;53672;48.176;16.338;2022-12-22T20:02:51;5.90;;;1.30;;
66761;SDS011;53672;48.176;16.338;2022-12-22T20:07:53;6.28;;;1.48;;
66761;SDS011;53672;48.176;16.338;2022-12-22T20:12:57;7.05;;;1.30;;
66761;SDS011;53672;48.176;16.338;2022-12-22T20:18:00;6.55;;;1.00;;
66761;SDS011;53672;48.176;16.338;2022-12-22T20:23:03;7.60;;;2.07;;
66761;SDS011;53672;48.176;16.338;2022-12-22T20:28:12;5.25;;;1.42;;
66761;SDS011;53672;48.176;16.338;2022-12-22T20:33:15;10.27;;;1.48;;
66761;SDS011;53672;48.176;16.338;2022-12-22T20:38:18;9.77;;;1.23;;
66761;SDS011;53672;48.176;16.338;2022-12-22T20:43:34;4.18;;;0.98;;
66761;SDS011;53672;48.176;16.338;2022-12-22T20:48:36;5.47;;;1.50;;
66761;SDS011;53672;48.176;16.338;2022-12-22T20:53:38;5.18;;;1.30;;
66761;SDS011;53672;48.176;16.338;2022-12-22T20:58:40;5.93;;;1.30;;
66761;SDS011;53672;48.176;16.338;2022-12-22T21:03:42;7.35;;;1.45;;
66761;SDS011;53672;48.176;16.338;2022-12-22T21:08:42;6.60;;;1.53;;
66761;SDS011;53672;48.176;16.338;2022-12-22T21:13:44;6.40;;;1.57;;
66761;SDS011;53672;48.176;16.338;2022-12-22T21:18:45;9.48;;;1.52;;
66761;SDS011;53672;48.176;16.338;2022-12-22T21:23:45;6.67;;;1.60;;
66761;SDS011;53672;48.176;16.338;2022-12-22T21:28:47;7.40;;;1.50;;
66761;SDS011;53672;48.176;16.338;2022-12-22T21:33:48;9.35;;;2.30;;
66761;SDS011;53672;48.176;16.338;2022-12-22T21:38:49;7.57;;;1.80;;
66761;SDS011;53672;48.176;16.338;2022-12-22T21:43:54;9.60;;;1.67;;
66761;SDS011;53672;48.176;16.338;2022-12-22T21:48:54;5.60;;;1.73;;
66761;SDS011;53672;48.176;16.338;2022-12-22T21:53:55;8.20;;;2.10;;
66761;SDS011;53672;48.176;16.338;2022-12-22T21:58:57;6.40;;;1.60;;
66761;SDS011;53672;48.176;16.338;2022-12-22T22:03:57;7.35;;;1.30;;
66761;SDS011;53672;48.176;16.338;2022-12-22T22:08:58;5.67;;;1.37;;
66761;SDS011;53672;48.176;16.338;2022-12-22T22:14:00;8.70;;;1.77;;
66761;SDS011;53672;48.176;16.338;2022-12-22T22:19:00;5.72;;;1.40;;
66761;SDS011;53672;48.176;16.338;2022-12-22T22:24:00;7.20;;;1.40;;
66761;SDS011;53672;48.176;16.338;2022-12-22T22:29:02;5.97;;;1.27;;
66761;SDS011;53672;48.176;16.338;2022-12-22T22:34:03;5.97;;;1.38;;
66761;SDS011;53672;48.176;16.338;2022-12-22T22:39:03;8.20;;;1.50;;
66761;SDS011;53672;48.176;16.338;2022-12-22T22:44:05;6.83;;;1.40;;
66761;SDS011;53672;48.176;16.338;2022-12-22T22:49:06;6.20;;;1.42;;
66761;SDS011;53672;48.176;16.338;2022-12-22T22:54:08;6.73;;;1.47;;
66761;SDS011;53672;48.176;16.338;2022-12-22T22:59:11;8.60;;;1.40;;
66761;SDS011;53672;48.176;16.338;2022-12-22T23:04:12;7.50;;;2.15;;
66761;SDS011;53672;48.176;16.338;2022-12-22T23:09:12;10.50;;;1.80;;
66761;SDS011;53672;48.176;16.338;2022-12-22T23:14:14;3.80;;;1.30;;
66761;SDS011;53672;48.176;16.338;2022-12-22T23:19:15;6.28;;;1.70;;
66761;SDS011;53672;48.176;16.338;2022-12-22T23:24:16;6.82;;;2.35;;
66761;SDS011;53672;48.176;16.338;2022-12-22T23:29:18;7.43;;;2.55;;
66761;SDS011;53672;48.176;16.338;2022-12-22T23:34:18;11.93;;;3.10;;
66761;SDS011;53672;48.176;16.338;2022-12-22T23:39:19;11.40;;;3.13;;
66761;SDS011;53672;48.176;16.338;2022-12-22T23:44:20;9.50;;;3.45;;
66761;SDS011;53672;48.176;16.338;2022-12-22T23:49:21;9.65;;;3.40;;
66761;SDS011;53672;48.176;16.338;2022-12-22T23:54:22;9.60;;;3.83;;
66761;SDS011;53672;48.176;16.338;2022-12-22T23:59:23;9.20;;;3.55;;
